createdAt,value
2023-02-12T00:00:46.692Z,99525.38
2023-02-12T00:03:39.492Z,99524.52
2023-02-12T00:06:15.921Z,99524.69
2023-02-12T00:08:52.335Z,99527.25
2023-02-12T00:11:28.807Z,99532.00
2023-02-12T00:14:03.224Z,99532.52
2023-02-12T00:16:36.255Z,99537.58
2023-02-12T00:19:08.441Z,99538.30
2023-02-12T00:21:40.720Z,99538.63
2023-02-12T00:24:12.974Z,99538.66
2023-02-12T00:26:45.267Z,99534.26
2023-02-12T00:29:17.767Z,99535.15
2023-02-12T00:31:50.080Z,99538.52
2023-02-12T00:34:22.411Z,99543.80
2023-02-12T00:36:54.660Z,99543.31
2023-02-12T00:39:26.889Z,99541.23
2023-02-12T00:41:59.075Z,99540.53
2023-02-12T00:44:31.743Z,99541.59
2023-02-12T00:47:07.268Z,99547.73
2023-02-12T00:49:41.505Z,99555.02
2023-02-12T00:52:13.804Z,99558.88
2023-02-12T00:54:46.204Z,99564.48
2023-02-12T00:57:19.777Z,99565.71
2023-02-12T00:59:52.560Z,99569.52
2023-02-12T01:02:26.416Z,99569.85
2023-02-12T01:04:59.108Z,99576.89
2023-02-12T01:07:31.447Z,99577.25
2023-02-12T01:10:03.908Z,99576.38
2023-02-12T01:12:36.253Z,99581.86
2023-02-12T01:15:10.534Z,99582.92
2023-02-12T01:17:43.136Z,99588.22
2023-02-12T01:20:21.148Z,99594.30
2023-02-12T01:22:54.841Z,99592.36
2023-02-12T01:25:27.221Z,99595.79
2023-02-12T01:28:02.473Z,99599.25
2023-02-12T01:30:34.966Z,99608.86
2023-02-12T01:33:07.342Z,99603.80
2023-02-12T01:35:40.272Z,99609.91
2023-02-12T01:38:12.691Z,99617.73
2023-02-12T01:40:45.697Z,99623.96
2023-02-12T01:43:18.306Z,99624.46
2023-02-12T01:45:56.395Z,99624.85
2023-02-12T01:48:32.642Z,99637.05
2023-02-12T01:51:11.219Z,99636.35
2023-02-12T01:53:48.559Z,99633.90
2023-02-12T01:56:21.507Z,99643.37
2023-02-12T01:58:55.722Z,99647.27
2023-02-12T02:01:32.304Z,99648.87
2023-02-12T02:04:10.147Z,99648.18
2023-02-12T02:06:49.434Z,99652.55
2023-02-12T02:09:22.391Z,99650.83
2023-02-12T02:12:12.790Z,99642.98
2023-02-12T02:14:46.420Z,99651.36
2023-02-12T02:17:42.962Z,99651.90
2023-02-12T02:21:04.864Z,99653.33
2023-02-12T02:24:22.576Z,99654.27
2023-02-12T02:27:14.264Z,99656.52
2023-02-12T02:29:58.158Z,99668.91
2023-02-12T02:32:33.829Z,99676.55
2023-02-12T02:35:16.910Z,99680.65
2023-02-12T02:37:57.926Z,99684.59
2023-02-12T02:40:40.227Z,99683.85
2023-02-12T02:43:17.441Z,99677.56
2023-02-12T02:45:54.422Z,99680.80
2023-02-12T02:48:33.488Z,99684.35
2023-02-12T02:51:09.819Z,99688.23
2023-02-12T02:53:46.559Z,99694.77
2023-02-12T02:56:21.353Z,99693.16
2023-02-12T02:59:00.629Z,99695.11
2023-02-12T03:01:37.862Z,99696.34
2023-02-12T03:04:13.465Z,99695.63
2023-02-12T03:06:51.952Z,99695.73
2023-02-12T03:09:30.247Z,99702.05
2023-02-12T03:12:07.767Z,99709.90
2023-02-12T03:14:46.872Z,99712.33
2023-02-12T03:17:23.584Z,99722.45
2023-02-12T03:20:01.652Z,99724.41
2023-02-12T03:22:37.603Z,99728.86
2023-02-12T03:25:16.344Z,99728.54
2023-02-12T03:27:54.322Z,99741.17
2023-02-12T03:30:30.630Z,99753.81
2023-02-12T03:33:12.025Z,99757.88
2023-02-12T03:35:54.797Z,99756.34
2023-02-12T03:38:35.872Z,99763.88
2023-02-12T03:41:13.802Z,99766.33
2023-02-12T03:43:53.810Z,99771.59
2023-02-12T03:46:32.646Z,99781.23
2023-02-12T03:49:11.763Z,99780.59
2023-02-12T03:51:46.258Z,99783.18
2023-02-12T03:54:20.924Z,99783.69
2023-02-12T03:56:57.336Z,99785.42
2023-02-12T03:59:30.396Z,99793.20
2023-02-12T04:02:02.852Z,99797.05
2023-02-12T04:04:36.208Z,99800.14
2023-02-12T04:07:08.839Z,99804.80
2023-02-12T04:09:41.555Z,99808.10
2023-02-12T04:12:35.455Z,99805.41
2023-02-12T04:15:24.828Z,99816.11
2023-02-12T04:18:07.360Z,99821.05
2023-02-12T04:20:50.055Z,99825.25
2023-02-12T04:23:38.445Z,99820.52
2023-02-12T04:26:18.755Z,99823.96
2023-02-12T04:28:59.619Z,99832.24
2023-02-12T04:31:35.536Z,99842.06
2023-02-12T04:34:15.811Z,99850.19
2023-02-12T04:36:58.580Z,99852.73
2023-02-12T04:39:35.247Z,99854.86
2023-02-12T04:42:08.859Z,99865.48
2023-02-12T04:44:45.555Z,99866.81
2023-02-12T04:47:18.723Z,99876.39
2023-02-12T04:49:51.131Z,99880.20
2023-02-12T04:52:23.352Z,99881.28
2023-02-12T04:54:56.135Z,99881.31
2023-02-12T04:57:28.592Z,99892.95
2023-02-12T05:00:01.132Z,99902.09
2023-02-12T05:02:34.287Z,99904.52
2023-02-12T05:05:07.398Z,99909.52
2023-02-12T05:07:39.707Z,99918.08
2023-02-12T05:10:13.349Z,99926.39
2023-02-12T05:12:45.606Z,99929.87
2023-02-12T05:15:20.397Z,99939.38
2023-02-12T05:17:52.738Z,99945.77
2023-02-12T05:20:25.444Z,99949.92
2023-02-12T05:22:58.097Z,99950.21
2023-02-12T05:25:32.459Z,99957.83
2023-02-12T05:28:05.013Z,99963.15
2023-02-12T05:30:37.387Z,99964.27
2023-02-12T05:33:12.287Z,99966.29
2023-02-12T05:35:44.627Z,99965.86
2023-02-12T05:38:18.277Z,99975.09
2023-02-12T05:40:50.608Z,99977.21
2023-02-12T05:43:26.344Z,99980.58
2023-02-12T05:46:02.043Z,99985.17
2023-02-12T05:48:35.318Z,99982.08
2023-02-12T05:51:10.199Z,99988.05
2023-02-12T05:53:43.396Z,99994.81
2023-02-12T05:56:18.448Z,100000.52
2023-02-12T05:58:53.896Z,100009.23
2023-02-12T06:01:28.869Z,100015.85
2023-02-12T06:04:08.843Z,100023.83
2023-02-12T06:06:42.325Z,100026.17
2023-02-12T06:09:15.787Z,100029.52
2023-02-12T06:11:48.806Z,100036.02
2023-02-12T06:14:22.544Z,100041.71
2023-02-12T06:16:55.287Z,100045.00
2023-02-12T06:19:28.003Z,100049.83
2023-02-12T06:22:00.296Z,100052.16
2023-02-12T06:24:32.667Z,100055.84
2023-02-12T06:27:05.843Z,100061.98
2023-02-12T06:29:38.036Z,100064.45
2023-02-12T06:32:13.704Z,100070.38
2023-02-12T06:34:45.984Z,100069.53
2023-02-12T06:37:18.299Z,100072.02
2023-02-12T06:39:50.953Z,100076.88
2023-02-12T06:42:23.566Z,100080.34
2023-02-12T06:44:55.773Z,100081.61
2023-02-12T06:47:28.062Z,100082.33
2023-02-12T06:50:00.366Z,100083.55
2023-02-12T06:52:32.688Z,100089.98
2023-02-12T06:55:05.039Z,100099.45
2023-02-12T06:57:37.233Z,100103.35
2023-02-12T07:00:12.165Z,100103.81
2023-02-12T07:02:44.350Z,100093.80
2023-02-12T07:05:16.787Z,100089.34
2023-02-12T07:07:49.150Z,100094.20
2023-02-12T07:10:23.525Z,100094.38
2023-02-12T07:12:55.743Z,100099.96
2023-02-12T07:15:27.917Z,100099.83
2023-02-12T07:18:00.229Z,100106.91
2023-02-12T07:20:32.412Z,100112.58
2023-02-12T07:23:04.746Z,100110.81
2023-02-12T07:25:37.033Z,100109.77
2023-02-12T07:28:09.367Z,100111.65
2023-02-12T07:30:42.779Z,100114.23
2023-02-12T07:33:17.411Z,100118.59
2023-02-12T07:35:49.701Z,100126.13
2023-02-12T07:38:22.034Z,100130.20
2023-02-12T07:40:54.254Z,100135.57
2023-02-12T07:43:26.502Z,100134.81
2023-02-12T07:46:06.669Z,100134.58
2023-02-12T07:48:39.016Z,100138.91
2023-02-12T07:51:13.592Z,100139.70
2023-02-12T07:53:46.018Z,100143.02
2023-02-12T07:56:21.668Z,100148.38
2023-02-12T07:58:55.007Z,100155.48
2023-02-12T08:01:29.245Z,100157.08
2023-02-12T08:04:03.696Z,100166.02
2023-02-12T08:06:38.989Z,100161.23
2023-02-12T08:09:14.356Z,100160.88
2023-02-12T08:11:47.372Z,100162.89
2023-02-12T08:14:22.585Z,100163.71
2023-02-12T08:16:55.300Z,100156.94
2023-02-12T08:19:27.675Z,100157.40
2023-02-12T08:22:02.463Z,100163.52
2023-02-12T08:24:36.082Z,100164.11
2023-02-12T08:27:08.286Z,100168.89
2023-02-12T08:29:40.705Z,100172.31
2023-02-12T08:32:14.458Z,100171.34
2023-02-12T08:34:46.720Z,100178.02
2023-02-12T08:37:22.491Z,100182.30
2023-02-12T08:39:54.865Z,100187.16
2023-02-12T08:42:28.162Z,100189.06
2023-02-12T08:45:00.407Z,100185.64
2023-02-12T08:47:32.658Z,100191.02
2023-02-12T08:50:05.028Z,100192.34
2023-02-12T08:52:38.755Z,100193.84
2023-02-12T08:55:11.487Z,100196.02
2023-02-12T08:57:44.854Z,100195.07
2023-02-12T09:00:18.559Z,100191.10
2023-02-12T09:02:52.650Z,100193.11
2023-02-12T09:05:25.035Z,100196.00
2023-02-12T09:08:00.161Z,100205.90
2023-02-12T09:10:32.616Z,100207.75
2023-02-12T09:13:04.732Z,100203.05
2023-02-12T09:15:39.455Z,100203.61
2023-02-12T09:18:12.062Z,100206.45
2023-02-12T09:20:46.556Z,100206.73
2023-02-12T09:23:18.901Z,100208.48
2023-02-12T09:25:53.747Z,100212.41
2023-02-12T09:28:26.671Z,100218.21
2023-02-12T09:30:59.044Z,100220.30
2023-02-12T09:33:31.426Z,100229.44
2023-02-12T09:36:11.125Z,100224.97
2023-02-12T09:38:44.075Z,100203.87
2023-02-12T09:41:48.974Z,100210.17
2023-02-12T09:44:28.638Z,100208.42
2023-02-12T09:47:04.989Z,100201.20
2023-02-12T09:49:57.385Z,100198.65
2023-02-12T09:52:31.907Z,100186.92
2023-02-12T09:55:04.940Z,100190.33
2023-02-12T09:57:39.384Z,100199.84
2023-02-12T10:00:16.898Z,100202.32
2023-02-12T10:02:51.988Z,100197.27
2023-02-12T10:05:28.694Z,100189.88
2023-02-12T10:08:24.601Z,100177.31
2023-02-12T10:11:02.090Z,100171.25
2023-02-12T10:13:42.518Z,100183.80
2023-02-12T10:16:22.387Z,100185.66
2023-02-12T10:19:06.852Z,100171.80
2023-02-12T10:21:51.202Z,100168.15
2023-02-12T10:24:45.505Z,100165.39
2023-02-12T10:27:19.227Z,100158.41
2023-02-12T10:29:53.242Z,100149.89
2023-02-12T10:32:29.603Z,100144.40
2023-02-12T10:35:03.601Z,100128.80
2023-02-12T10:37:41.976Z,100126.03
2023-02-12T10:40:22.495Z,100124.52
2023-02-12T10:42:55.571Z,100129.40
2023-02-12T10:45:31.395Z,100133.48
2023-02-12T10:48:12.505Z,100128.52
2023-02-12T10:51:05.147Z,100115.88
2023-02-12T10:53:39.369Z,100105.12
2023-02-12T10:56:18.512Z,100102.61
2023-02-12T10:58:59.438Z,100085.67
2023-02-12T11:01:34.512Z,100074.79
2023-02-12T11:04:28.649Z,100071.69
2023-02-12T11:07:03.658Z,100051.02
2023-02-12T11:09:40.811Z,100056.70
2023-02-12T11:12:27.530Z,100051.20
2023-02-12T11:15:01.803Z,100044.04
2023-02-12T11:17:38.692Z,100021.25
2023-02-12T11:20:30.752Z,100007.30
2023-02-12T11:23:06.436Z,99994.38
2023-02-12T11:25:56.013Z,99983.65
2023-02-12T11:28:28.773Z,99966.87
2023-02-12T11:31:04.577Z,99930.99
2023-02-12T11:33:39.214Z,99892.30
2023-02-12T11:36:22.155Z,99895.00
2023-02-12T11:38:57.416Z,99917.04
2023-02-12T11:41:36.602Z,99913.73
2023-02-12T11:44:14.623Z,99896.27
2023-02-12T11:46:52.613Z,99885.84
2023-02-12T11:49:34.428Z,99883.35
2023-02-12T11:52:08.037Z,99882.17
2023-02-12T11:54:50.323Z,99893.64
2023-02-12T11:57:40.821Z,99895.37
2023-02-12T12:00:16.974Z,99895.08
2023-02-12T12:03:01.934Z,99893.55
2023-02-12T12:05:40.077Z,99898.10
2023-02-12T12:08:21.243Z,99900.38
2023-02-12T12:10:59.879Z,99919.16
2023-02-12T12:13:38.647Z,99918.75
2023-02-12T12:16:33.100Z,99914.63
2023-02-12T12:19:30.090Z,99907.91
2023-02-12T12:22:09.797Z,99906.29
2023-02-12T12:24:49.074Z,99914.91
2023-02-12T12:30:42.562Z,99923.75
2023-02-12T12:33:24.925Z,99930.65
2023-02-12T12:36:08.581Z,99938.25
2023-02-12T12:38:53.657Z,99938.43
2023-02-12T12:41:33.953Z,99937.02
2023-02-12T12:44:21.865Z,99933.16
2023-02-12T12:47:06.472Z,99934.02
2023-02-12T12:50:03.401Z,99943.11
2023-02-12T12:53:10.829Z,99953.11
2023-02-12T12:56:08.707Z,99959.64
2023-02-12T12:58:52.402Z,99964.58
2023-02-12T13:01:45.901Z,99955.36
2023-02-12T13:04:50.260Z,99951.52
2023-02-12T13:07:33.924Z,99963.35
2023-02-12T13:10:24.373Z,99975.11
2023-02-12T13:13:19.583Z,99981.62
2023-02-12T13:16:02.673Z,99990.73
2023-02-12T13:18:46.980Z,99998.13
2023-02-12T13:21:33.560Z,100008.58
2023-02-12T13:24:12.729Z,100022.46
2023-02-12T13:26:53.925Z,100037.27
2023-02-12T13:29:31.135Z,100040.57
2023-02-12T13:32:07.465Z,100048.52
2023-02-12T13:34:44.403Z,100050.56
2023-02-12T13:37:21.739Z,100059.21
2023-02-12T13:39:59.635Z,100072.35
2023-02-12T13:42:44.987Z,100079.10
2023-02-12T13:45:28.840Z,100093.99
2023-02-12T13:48:19.883Z,100109.23
2023-02-12T13:51:01.272Z,100122.29
2023-02-12T13:53:47.101Z,100133.96
2023-02-12T13:56:33.712Z,100142.69
2023-02-12T13:59:26.051Z,100152.18
2023-02-12T14:01:58.826Z,100159.55
2023-02-12T14:04:36.627Z,100168.02
2023-02-12T14:07:12.813Z,100176.21
2023-02-12T14:09:47.650Z,100187.10
2023-02-12T14:12:35.518Z,100195.25
2023-02-12T14:15:21.840Z,100203.55
2023-02-12T14:18:05.328Z,100210.73
2023-02-12T14:20:40.244Z,100217.67
2023-02-12T14:23:32.054Z,100225.81
2023-02-12T14:26:10.892Z,100235.27
2023-02-12T14:28:52.702Z,100237.80
2023-02-12T14:31:34.589Z,100239.55
2023-02-12T14:34:43.817Z,100237.29
2023-02-12T14:37:44.173Z,100245.81
2023-02-12T14:40:47.208Z,100251.13
2023-02-12T14:43:55.906Z,100259.44
2023-02-12T14:46:48.924Z,100265.38
2023-02-12T14:49:27.044Z,100271.14
2023-02-12T14:52:05.054Z,100272.52
2023-02-12T14:54:42.422Z,100268.26
2023-02-12T14:57:23.913Z,100264.45
2023-02-12T14:59:59.093Z,100265.77
2023-02-12T15:02:34.347Z,100268.33
2023-02-12T15:05:14.932Z,100268.24
2023-02-12T15:07:55.690Z,100266.22
2023-02-12T15:10:33.878Z,100266.20
2023-02-12T15:13:25.473Z,100268.33
2023-02-12T15:16:02.906Z,100272.77
2023-02-12T15:18:51.799Z,100279.09
2023-02-12T15:21:29.636Z,100275.10
2023-02-12T15:24:05.146Z,100276.18
2023-02-12T15:26:41.780Z,100274.83
2023-02-12T15:29:28.306Z,100274.83
2023-02-12T15:32:03.843Z,100275.66
2023-02-12T15:34:39.077Z,100281.66
2023-02-12T15:37:20.306Z,100273.02
2023-02-12T15:39:56.074Z,100277.36
2023-02-12T15:42:32.982Z,100274.26
2023-02-12T15:45:29.567Z,100274.47
2023-02-12T15:48:12.372Z,100276.84
2023-02-12T15:50:58.695Z,100275.38
2023-02-12T15:53:32.275Z,100274.70
2023-02-12T15:56:05.688Z,100269.59
2023-02-12T15:58:43.772Z,100269.31
2023-02-12T16:01:21.502Z,100265.48
2023-02-12T16:03:55.630Z,100267.23
2023-02-12T16:06:29.665Z,100265.95
2023-02-12T16:09:07.564Z,100266.41
2023-02-12T16:11:40.596Z,100278.04
2023-02-12T16:14:24.507Z,100276.37
2023-02-12T16:16:59.399Z,100283.05
2023-02-12T16:19:33.787Z,100285.86
2023-02-12T16:22:11.486Z,100293.17
2023-02-12T16:24:50.508Z,100294.58
2023-02-12T16:27:24.509Z,100295.29
2023-02-12T16:29:59.215Z,100301.23
2023-02-12T16:32:37.656Z,100299.86
2023-02-12T16:35:28.408Z,100300.21
2023-02-12T16:38:27.790Z,100302.50
2023-02-12T16:41:21.161Z,100308.98
2023-02-12T16:44:11.788Z,100311.76
2023-02-12T16:46:47.998Z,100313.59
2023-02-12T16:49:22.407Z,100311.23
2023-02-12T16:51:56.757Z,100309.76
2023-02-12T16:54:32.083Z,100310.48
2023-02-12T16:57:04.665Z,100312.98
2023-02-12T16:59:43.323Z,100311.83
2023-02-12T17:02:16.736Z,100314.89
2023-02-12T17:04:49.258Z,100321.34
2023-02-12T17:07:25.818Z,100325.02
2023-02-12T17:09:58.032Z,100324.31
2023-02-12T17:12:30.532Z,100319.11
2023-02-12T17:15:07.776Z,100320.58
2023-02-12T17:17:40.009Z,100323.98
2023-02-12T17:20:14.229Z,100322.30
2023-02-12T17:22:51.502Z,100321.11
2023-02-12T17:25:23.737Z,100325.47
2023-02-12T17:27:55.959Z,100321.36
2023-02-12T17:30:32.448Z,100318.46
2023-02-12T17:33:04.792Z,100314.89
2023-02-12T17:35:38.294Z,100313.09
2023-02-12T17:38:10.864Z,100307.07
2023-02-12T17:40:43.186Z,100312.71
2023-02-12T17:43:16.165Z,100313.60
2023-02-12T17:45:48.520Z,100315.70
2023-02-12T17:48:23.497Z,100315.20
2023-02-12T17:50:58.471Z,100308.67
2023-02-12T17:53:30.929Z,100305.50
2023-02-12T17:56:03.208Z,100303.46
2023-02-12T17:58:38.563Z,100301.42
2023-02-12T18:01:13.967Z,100302.94
2023-02-12T18:03:46.781Z,100301.34
2023-02-12T18:06:25.680Z,100302.28
2023-02-12T18:08:59.376Z,100300.95
2023-02-12T18:11:33.049Z,100302.27
2023-02-12T18:14:05.915Z,100302.04
2023-02-12T18:16:38.655Z,100302.82
2023-02-12T18:19:11.291Z,100306.17
2023-02-12T18:21:44.104Z,100307.39
2023-02-12T18:24:16.529Z,100306.67
2023-02-12T18:26:49.049Z,100301.48
2023-02-12T18:29:21.604Z,100300.09
2023-02-12T18:31:55.154Z,100300.08
2023-02-12T18:34:27.724Z,100293.98
2023-02-12T18:36:59.996Z,100295.88
2023-02-12T18:39:32.505Z,100297.77
2023-02-12T18:42:05.469Z,100301.75
2023-02-12T18:44:37.743Z,100299.39
2023-02-12T18:47:10.372Z,100303.97
2023-02-12T18:49:42.511Z,100301.94
2023-02-12T18:52:15.064Z,100305.06
2023-02-12T18:54:47.345Z,100303.83
2023-02-12T18:57:19.716Z,100301.04
2023-02-12T18:59:51.939Z,100304.30
2023-02-12T19:02:24.248Z,100303.20
2023-02-12T19:04:56.759Z,100306.95
2023-02-12T19:07:29.078Z,100307.23
2023-02-12T19:10:01.367Z,100305.42
2023-02-12T19:12:33.692Z,100304.34
2023-02-12T19:15:07.180Z,100304.82
2023-02-12T19:17:39.521Z,100305.44
2023-02-12T19:20:14.759Z,100303.11
2023-02-12T19:22:47.316Z,100295.96
2023-02-12T19:25:20.465Z,100293.87
2023-02-12T19:27:53.296Z,100294.20
2023-02-12T19:30:25.741Z,100295.05
2023-02-12T19:32:58.384Z,100296.55
2023-02-12T19:35:30.608Z,100293.69
2023-02-12T19:38:03.120Z,100285.63
2023-02-12T19:40:35.365Z,100280.70
2023-02-12T19:43:07.611Z,100279.95
2023-02-12T19:45:39.879Z,100280.60
2023-02-12T19:48:12.076Z,100276.73
2023-02-12T19:50:49.282Z,100274.19
2023-02-12T19:53:21.624Z,100281.58
2023-02-12T19:55:54.257Z,100282.73
2023-02-12T19:58:26.418Z,100286.30
2023-02-12T20:00:58.707Z,100286.75
2023-02-12T20:03:30.998Z,100288.20
2023-02-12T20:06:09.684Z,100284.92
2023-02-12T20:08:43.222Z,100283.94
2023-02-12T20:11:20.247Z,100279.65
2023-02-12T20:13:52.962Z,100281.11
2023-02-12T20:16:31.187Z,100277.44
2023-02-12T20:19:07.112Z,100276.02
2023-02-12T20:21:39.812Z,100275.80
2023-02-12T20:24:12.335Z,100278.65
2023-02-12T20:26:44.685Z,100273.52
2023-02-12T20:29:19.023Z,100268.31
2023-02-12T20:31:51.790Z,100261.52
2023-02-12T20:34:24.280Z,100255.92
2023-02-12T20:36:56.563Z,100257.45
2023-02-12T20:39:28.908Z,100259.31
2023-02-12T20:42:01.104Z,100260.50
2023-02-12T20:44:34.224Z,100260.16
2023-02-12T20:47:06.982Z,100263.97
2023-02-12T20:49:39.777Z,100264.48
2023-02-12T20:52:12.232Z,100263.23
2023-02-12T20:54:46.395Z,100262.48
2023-02-12T20:57:20.311Z,100264.41
2023-02-12T20:59:52.915Z,100263.54
2023-02-12T21:02:25.407Z,100259.37
2023-02-12T21:04:57.805Z,100261.48
2023-02-12T21:07:30.106Z,100258.52
2023-02-12T21:10:05.901Z,100261.46
2023-02-12T21:12:38.152Z,100257.98
2023-02-12T21:15:14.732Z,100257.52
2023-02-12T21:17:46.985Z,100261.40
2023-02-12T21:20:19.632Z,100270.63
2023-02-12T21:22:51.989Z,100269.55
2023-02-12T21:25:24.746Z,100269.85
2023-02-12T21:28:01.417Z,100274.54
2023-02-12T21:30:34.058Z,100277.66
2023-02-12T21:33:06.633Z,100279.39
2023-02-12T21:35:41.954Z,100269.58
2023-02-12T21:38:14.442Z,100267.52
2023-02-12T21:40:47.027Z,100266.15
2023-02-12T21:43:19.462Z,100266.84
2023-02-12T21:45:56.362Z,100259.98
2023-02-12T21:48:29.382Z,100262.16
2023-02-12T21:51:02.681Z,100266.70
2023-02-12T21:53:35.235Z,100265.83
2023-02-12T21:56:08.588Z,100261.44
2023-02-12T21:58:41.272Z,100258.03
2023-02-12T22:01:19.318Z,100256.27
2023-02-12T22:03:53.328Z,100254.67
2023-02-12T22:06:29.054Z,100260.25
2023-02-12T22:09:06.622Z,100251.36
2023-02-12T22:11:41.915Z,100250.70
2023-02-12T22:14:19.344Z,100252.91
2023-02-12T22:16:55.627Z,100254.84
2023-02-12T22:19:35.390Z,100255.02
2023-02-12T22:22:08.244Z,100253.18
2023-02-12T22:24:45.795Z,100251.75
2023-02-12T22:27:20.497Z,100249.48
2023-02-12T22:29:53.430Z,100249.66
2023-02-12T22:32:29.122Z,100241.99
2023-02-12T22:35:01.412Z,100236.91
2023-02-12T22:37:33.825Z,100231.18
2023-02-12T22:40:07.103Z,100237.77
2023-02-12T22:42:39.322Z,100240.88
2023-02-12T22:45:12.401Z,100239.46
2023-02-12T22:47:44.596Z,100246.30
2023-02-12T22:50:20.272Z,100250.16
2023-02-12T22:52:52.809Z,100255.73
2023-02-12T22:55:26.334Z,100260.61
2023-02-12T22:57:59.673Z,100261.61
2023-02-12T23:00:32.104Z,100260.72
2023-02-12T23:03:04.868Z,100261.72
2023-02-12T23:05:39.908Z,100264.96
2023-02-12T23:08:12.107Z,100262.13
2023-02-12T23:10:45.221Z,100265.77
2023-02-12T23:13:28.977Z,100264.02
2023-02-12T23:16:02.101Z,100260.17
2023-02-12T23:18:35.436Z,100255.63
2023-02-12T23:21:12.281Z,100251.10
2023-02-12T23:23:44.470Z,100248.67
2023-02-12T23:26:19.378Z,100252.84
2023-02-12T23:28:59.389Z,100255.96
2023-02-12T23:31:31.842Z,100254.38
2023-02-12T23:34:04.400Z,100252.24
2023-02-12T23:36:42.031Z,100253.58
2023-02-12T23:39:15.505Z,100250.94
2023-02-12T23:41:47.788Z,100242.23
2023-02-12T23:44:20.063Z,100246.02
2023-02-12T23:46:54.013Z,100243.92
2023-02-12T23:49:26.696Z,100242.66
2023-02-12T23:51:58.955Z,100243.48
2023-02-12T23:54:32.016Z,100249.77
2023-02-12T23:57:04.354Z,100248.88
2023-02-12T23:59:37.053Z,100247.98
